Terminal Aerodrome Forecast
Issued by NWS Knoxville/Tri Cities, TN

Current Version | Previous Version | Text Only | Print | Product List | Glossary On
Versions: 1 2 3 4 5 6 7 8 9 10 11 12 13
000
FTUS44 KMRX 272320
TAFCHA
TAF
KCHA 272320Z 2800/2824 03005KT P6SM SCT060
     FM280400 VRB03KT P6SM SKC
     FM281600 15006KT P6SM FEW040=

USA.gov is the U.S. government's official web portal to all federal, state and local government web resources and services.